createdAt,value
2019-05-11T00:00:19.668Z,12.13
2019-05-11T00:02:48.488Z,12.17
2019-05-11T00:05:17.934Z,12.18
2019-05-11T00:07:46.765Z,12.13
2019-05-11T00:10:15.807Z,12.11
2019-05-11T00:12:44.657Z,12.17
2019-05-11T00:15:13.644Z,12.12
2019-05-11T00:17:42.461Z,12.18
2019-05-11T00:20:11.754Z,12.23
2019-05-11T00:22:40.621Z,12.32
2019-05-11T00:25:09.550Z,12.34
2019-05-11T00:27:38.393Z,12.38
2019-05-11T00:30:07.542Z,12.41
2019-05-11T00:32:36.360Z,12.40
2019-05-11T00:35:07.200Z,12.46
2019-05-11T00:37:36.023Z,12.52
2019-05-11T00:40:13.997Z,12.54
2019-05-11T00:42:36.333Z,12.61
2019-05-11T00:45:06.465Z,12.65
2019-05-11T00:47:35.298Z,12.65
2019-05-11T00:50:04.741Z,12.57
2019-05-11T00:52:33.560Z,12.53
2019-05-11T00:55:02.423Z,12.45
2019-05-11T00:57:31.305Z,12.31
2019-05-11T01:00:00.158Z,12.25
2019-05-11T01:02:29.012Z,12.19
2019-05-11T01:04:57.897Z,12.17
2019-05-11T01:07:26.838Z,12.16
2019-05-11T01:09:55.796Z,12.14
2019-05-11T01:12:24.650Z,12.12
2019-05-11T01:14:53.484Z,12.24
2019-05-11T01:17:22.317Z,12.25
2019-05-11T01:19:51.352Z,12.18
2019-05-11T01:22:20.193Z,12.14
2019-05-11T01:24:49.035Z,12.17
2019-05-11T01:27:17.883Z,12.12
2019-05-11T01:29:46.777Z,11.22
2019-05-11T01:32:15.602Z,12.02
2019-05-11T01:34:44.421Z,11.99
2019-05-11T01:37:13.245Z,11.99
2019-05-11T01:39:42.071Z,11.96
2019-05-11T01:42:10.898Z,11.93
2019-05-11T01:44:39.731Z,11.86
2019-05-11T01:47:08.562Z,11.81
2019-05-11T01:49:37.410Z,11.69
2019-05-11T01:52:06.315Z,11.63
2019-05-11T01:54:35.138Z,11.48
2019-05-11T01:57:03.996Z,11.40
2019-05-11T01:59:32.828Z,11.28
2019-05-11T02:02:01.676Z,11.23
2019-05-11T02:04:30.504Z,11.03
2019-05-11T02:06:59.356Z,10.87
2019-05-11T02:09:28.184Z,10.78
2019-05-11T02:11:57.028Z,10.77
2019-05-11T02:14:25.868Z,10.77
2019-05-11T02:16:54.703Z,10.61
2019-05-11T02:19:23.540Z,10.78
2019-05-11T02:21:52.482Z,10.80
2019-05-11T02:24:21.317Z,10.85
2019-05-11T02:26:50.223Z,10.88
2019-05-11T02:29:19.065Z,10.87
2019-05-11T02:31:47.891Z,10.73
2019-05-11T02:34:16.716Z,10.69
2019-05-11T02:36:45.606Z,10.49
2019-05-11T02:39:14.457Z,10.40
2019-05-11T02:41:43.297Z,10.21
2019-05-11T02:44:12.118Z,10.10
2019-05-11T02:46:40.976Z,9.96
2019-05-11T02:49:09.885Z,9.83
2019-05-11T02:51:40.311Z,9.74
2019-05-11T02:54:10.854Z,9.77
2019-05-11T02:56:39.672Z,9.73
2019-05-11T02:59:08.510Z,9.75
2019-05-11T03:01:37.328Z,9.76
2019-05-11T03:04:06.160Z,9.70
2019-05-11T03:06:35.002Z,9.56
2019-05-11T03:09:05.649Z,9.58
2019-05-11T03:11:52.807Z,9.70
2019-05-11T03:14:05.111Z,9.65
2019-05-11T03:16:33.946Z,9.67
2019-05-11T03:19:02.787Z,9.71
2019-05-11T03:21:31.617Z,9.67
2019-05-11T03:24:00.463Z,9.71
2019-05-11T03:26:29.339Z,9.70
2019-05-11T03:28:59.528Z,9.86
2019-05-11T03:31:28.422Z,9.82
2019-05-11T03:33:57.261Z,9.83
2019-05-11T03:36:26.168Z,9.90
2019-05-11T03:38:54.992Z,9.90
2019-05-11T03:41:23.823Z,9.95
2019-05-11T03:43:52.712Z,9.98
2019-05-11T03:46:21.536Z,9.96
2019-05-11T03:48:50.350Z,9.96
2019-05-11T03:51:19.196Z,9.83
2019-05-11T03:53:48.029Z,10.02
2019-05-11T03:56:16.869Z,10.09
2019-05-11T03:58:45.706Z,10.17
2019-05-11T04:01:14.545Z,10.20
2019-05-11T04:03:43.383Z,10.28
2019-05-11T04:06:12.226Z,10.46
2019-05-11T04:08:41.029Z,10.51
2019-05-11T04:11:09.699Z,10.60
2019-05-11T04:13:38.368Z,10.69
2019-05-11T04:16:07.103Z,10.77
2019-05-11T04:18:35.800Z,10.96
2019-05-11T04:21:04.472Z,11.09
2019-05-11T04:23:33.143Z,11.26
2019-05-11T04:26:01.842Z,11.32
2019-05-11T04:28:30.584Z,11.44
2019-05-11T04:30:59.237Z,11.59
2019-05-11T04:33:32.392Z,11.73
2019-05-11T04:35:58.475Z,11.81
2019-05-11T04:38:27.137Z,11.96
2019-05-11T04:40:55.801Z,12.02
2019-05-11T04:43:24.475Z,12.07
2019-05-11T04:45:53.148Z,12.22
2019-05-11T04:48:21.823Z,12.29
2019-05-11T04:50:50.495Z,12.40
2019-05-11T04:53:19.199Z,12.43
2019-05-11T04:55:47.879Z,12.26
2019-05-11T04:58:16.552Z,12.43
2019-05-11T05:00:45.268Z,12.59
2019-05-11T05:03:13.943Z,12.59
2019-05-11T05:05:42.605Z,12.86
2019-05-11T05:08:11.289Z,13.07
2019-05-11T05:10:39.966Z,13.21
2019-05-11T05:13:10.839Z,13.28
2019-05-11T05:15:39.037Z,13.36
2019-05-11T05:18:07.704Z,13.34
2019-05-11T05:20:36.390Z,13.46
2019-05-11T05:23:06.538Z,13.51
2019-05-11T05:25:35.201Z,13.46
2019-05-11T05:28:03.868Z,13.57
2019-05-11T05:30:32.548Z,13.51
2019-05-11T05:33:01.224Z,13.46
2019-05-11T05:35:29.887Z,13.78
2019-05-11T05:37:58.555Z,13.97
2019-05-11T05:40:27.234Z,14.23
2019-05-11T05:42:55.900Z,14.46
2019-05-11T05:45:24.617Z,14.67
2019-05-11T05:47:53.324Z,14.84
2019-05-11T05:50:22.029Z,14.95
2019-05-11T05:52:50.733Z,14.92
2019-05-11T05:55:19.459Z,14.77
2019-05-11T05:57:48.085Z,14.86
2019-05-11T06:00:18.070Z,15.14
2019-05-11T06:02:46.768Z,15.27
2019-05-11T06:05:15.491Z,15.48
2019-05-11T06:07:44.160Z,15.62
2019-05-11T06:10:13.926Z,15.83
2019-05-11T06:12:42.601Z,16.03
2019-05-11T06:15:11.460Z,16.12
2019-05-11T06:17:40.203Z,16.40
2019-05-11T06:20:09.445Z,16.63
2019-05-11T06:22:38.414Z,16.74
2019-05-11T06:25:07.386Z,16.62
2019-05-11T06:27:36.079Z,16.77
2019-05-11T06:30:06.359Z,16.84
2019-05-11T06:32:35.031Z,17.03
2019-05-11T06:35:04.697Z,17.17
2019-05-11T06:37:33.473Z,17.22
2019-05-11T06:40:02.195Z,17.23
2019-05-11T06:42:31.151Z,17.20
2019-05-11T06:44:59.814Z,17.24
2019-05-11T06:47:28.474Z,16.84
2019-05-11T06:49:57.165Z,17.08
2019-05-11T06:52:25.834Z,17.12
2019-05-11T06:54:54.526Z,17.38
2019-05-11T06:57:23.194Z,17.63
2019-05-11T06:59:51.867Z,17.69
2019-05-11T07:02:20.542Z,17.71
2019-05-11T07:04:49.308Z,17.26
2019-05-11T07:07:17.974Z,17.45
2019-05-11T07:09:46.655Z,17.26
2019-05-11T07:12:15.407Z,17.58
2019-05-11T07:14:44.193Z,18.02
2019-05-11T07:17:12.874Z,19.00
2019-05-11T07:19:41.617Z,19.13
2019-05-11T07:22:10.324Z,19.08
2019-05-11T07:24:39.010Z,20.49
2019-05-11T07:27:07.728Z,21.48
2019-05-11T07:29:36.445Z,21.72
2019-05-11T07:32:15.329Z,22.05
2019-05-11T07:34:35.687Z,21.25
2019-05-11T07:37:04.356Z,20.56
2019-05-11T07:39:33.094Z,20.90
2019-05-11T07:42:01.761Z,20.18
2019-05-11T07:44:38.350Z,20.85
2019-05-11T07:47:00.844Z,20.82
2019-05-11T07:49:29.560Z,19.83
2019-05-11T07:51:58.823Z,19.47
2019-05-11T07:54:28.173Z,20.39
2019-05-11T07:56:58.426Z,21.23
2019-05-11T07:59:28.926Z,21.31
2019-05-11T08:01:58.393Z,21.94
2019-05-11T08:04:28.731Z,22.33
2019-05-11T08:06:58.468Z,23.15
2019-05-11T08:09:27.926Z,24.23
2019-05-11T08:11:58.432Z,24.62
2019-05-11T08:14:28.817Z,22.26
2019-05-11T08:16:59.435Z,22.18
2019-05-11T08:19:28.385Z,20.84
2019-05-11T08:21:58.227Z,20.43
2019-05-11T08:24:28.449Z,20.36
2019-05-11T08:26:58.274Z,22.16
2019-05-11T08:29:27.841Z,20.99
2019-05-11T08:31:57.960Z,21.92
2019-05-11T08:34:28.640Z,23.90
2019-05-11T08:36:58.376Z,25.75
2019-05-11T08:39:28.842Z,26.91
2019-05-11T08:41:58.942Z,26.43
2019-05-11T08:44:37.849Z,25.65
2019-05-11T08:47:08.365Z,25.61
2019-05-11T08:49:38.106Z,26.15
2019-05-11T08:52:08.155Z,26.27
2019-05-11T08:54:38.194Z,25.92
2019-05-11T08:57:08.125Z,27.03
2019-05-11T08:59:38.070Z,26.98
2019-05-11T09:02:08.112Z,26.69
2019-05-11T09:04:41.653Z,27.14
2019-05-11T09:07:08.000Z,27.63
2019-05-11T09:09:38.072Z,25.98
2019-05-11T09:12:07.806Z,24.98
2019-05-11T09:14:38.700Z,25.54
2019-05-11T09:17:07.830Z,27.01
2019-05-11T09:19:38.841Z,26.94
2019-05-11T09:22:08.295Z,28.33
2019-05-11T09:24:38.647Z,29.99
2019-05-11T09:27:07.860Z,28.33
2019-05-11T09:29:38.663Z,29.74
2019-05-11T09:32:08.849Z,31.86
2019-05-11T09:34:38.266Z,33.05
2019-05-11T09:37:07.953Z,32.74
2019-05-11T09:39:38.327Z,33.67
2019-05-11T09:42:07.796Z,31.69
2019-05-11T09:44:37.981Z,31.96
2019-05-11T09:47:08.427Z,29.94
2019-05-11T09:49:46.472Z,26.72
2019-05-11T09:52:08.039Z,25.51
2019-05-11T09:54:38.229Z,28.16
2019-05-11T09:57:08.333Z,29.57
2019-05-11T09:59:38.543Z,30.92
2019-05-11T10:02:08.084Z,32.30
2019-05-11T10:04:38.008Z,32.53
2019-05-11T10:07:08.980Z,30.47
2019-05-11T10:09:38.306Z,29.38
2019-05-11T10:12:08.342Z,28.30
2019-05-11T10:14:38.077Z,30.47
2019-05-11T10:17:07.772Z,29.79
2019-05-11T10:19:36.787Z,30.87
2019-05-11T10:22:07.935Z,31.68
2019-05-11T10:24:38.507Z,30.16
2019-05-11T10:27:08.417Z,27.76
2019-05-11T10:29:38.274Z,28.54
2019-05-11T10:32:07.966Z,27.82
2019-05-11T10:34:38.640Z,26.99
2019-05-11T10:37:08.511Z,26.58
2019-05-11T10:39:38.278Z,25.41
2019-05-11T10:42:08.642Z,26.20
2019-05-11T10:44:38.520Z,26.30
2019-05-11T10:47:08.199Z,26.01
2019-05-11T10:49:38.022Z,26.46
2019-05-11T10:52:06.892Z,30.24
2019-05-11T10:54:35.581Z,30.72
2019-05-11T10:57:04.449Z,29.84
2019-05-11T10:59:33.209Z,31.43
2019-05-11T11:02:01.955Z,32.05
2019-05-11T11:04:30.693Z,31.96
2019-05-11T11:06:59.441Z,28.86
2019-05-11T11:09:28.456Z,30.39
2019-05-11T11:11:58.720Z,32.27
2019-05-11T11:14:28.713Z,34.69
2019-05-11T11:16:58.581Z,35.79
2019-05-11T11:19:28.917Z,35.17
2019-05-11T11:22:17.692Z,32.90
2019-05-11T11:24:28.801Z,32.59
2019-05-11T11:26:57.823Z,32.01
2019-05-11T11:29:28.687Z,33.65
2019-05-11T11:31:58.725Z,34.83
2019-05-11T11:34:28.048Z,36.87
2019-05-11T11:36:58.058Z,36.19
2019-05-11T11:39:28.235Z,36.37
2019-05-11T11:41:58.594Z,36.10
2019-05-11T11:44:28.603Z,36.44
2019-05-11T11:46:59.013Z,37.21
2019-05-11T11:49:28.489Z,37.33
2019-05-11T11:51:58.002Z,36.64
2019-05-11T11:54:28.786Z,37.06
2019-05-11T11:56:58.923Z,36.83
2019-05-11T11:59:28.625Z,34.26
2019-05-11T12:01:58.267Z,34.61
2019-05-11T12:04:28.227Z,36.83
2019-05-11T12:06:58.144Z,37.99
2019-05-11T12:09:28.591Z,35.80
2019-05-11T12:11:58.278Z,37.46
2019-05-11T12:14:28.201Z,35.48
2019-05-11T12:17:07.063Z,36.68
2019-05-11T12:19:28.013Z,36.24
2019-05-11T12:21:57.424Z,33.64
2019-05-11T12:24:25.830Z,34.63
2019-05-11T12:26:54.518Z,35.66
2019-05-11T12:29:23.233Z,37.47
2019-05-11T12:31:51.922Z,37.72
2019-05-11T12:34:19.342Z,37.49
2019-05-11T12:36:48.187Z,35.99
2019-05-11T12:39:19.001Z,37.11
2019-05-11T12:41:47.914Z,38.48
2019-05-11T12:44:18.765Z,38.77
2019-05-11T12:46:48.842Z,37.50
2019-05-11T12:49:18.631Z,36.81
2019-05-11T12:51:48.736Z,37.31
2019-05-11T12:54:18.724Z,37.20
2019-05-11T12:56:48.921Z,38.00
2019-05-11T12:59:18.749Z,37.30
2019-05-11T13:01:48.623Z,36.06
2019-05-11T13:04:18.193Z,36.68
2019-05-11T13:06:48.098Z,34.64
2019-05-11T13:09:18.374Z,29.41
2019-05-11T13:11:48.203Z,28.43
2019-05-11T13:14:18.410Z,27.90
2019-05-11T13:16:48.290Z,28.04
2019-05-11T13:19:17.658Z,29.04
2019-05-11T13:21:48.451Z,26.47
2019-05-11T13:24:18.724Z,27.30
2019-05-11T13:26:48.536Z,29.76
2019-05-11T13:29:18.175Z,30.84
2019-05-11T13:31:48.637Z,31.14
2019-05-11T13:34:18.041Z,28.14
2019-05-11T13:36:48.722Z,29.56
2019-05-11T13:39:18.136Z,30.95
2019-05-11T13:41:47.608Z,29.42
2019-05-11T13:44:18.433Z,27.37
2019-05-11T13:46:48.087Z,28.04
2019-05-11T13:49:17.855Z,30.25
2019-05-11T13:51:48.046Z,28.96
2019-05-11T13:54:18.534Z,30.82
2019-05-11T13:56:48.348Z,32.14
2019-05-11T13:59:18.847Z,32.79
2019-05-11T14:01:48.034Z,33.91
2019-05-11T14:04:18.096Z,34.55
2019-05-11T14:06:48.234Z,35.85
2019-05-11T14:09:18.381Z,35.37
2019-05-11T14:11:47.837Z,33.66
2019-05-11T14:14:18.451Z,30.98
2019-05-11T14:16:48.534Z,31.15
2019-05-11T14:19:18.115Z,32.54
2019-05-11T14:21:48.961Z,32.60
2019-05-11T14:24:18.337Z,33.13
2019-05-11T14:26:48.807Z,32.94
2019-05-11T14:29:17.996Z,33.06
2019-05-11T14:31:48.841Z,33.05
2019-05-11T14:34:18.235Z,32.63
2019-05-11T14:36:47.975Z,32.83
2019-05-11T14:39:18.951Z,31.44
2019-05-11T14:41:48.738Z,31.94
2019-05-11T14:44:18.263Z,31.41
2019-05-11T14:46:47.883Z,32.39
2019-05-11T14:49:18.389Z,32.27
2019-05-11T14:51:48.513Z,30.27
2019-05-11T14:54:18.754Z,26.77
2019-05-11T14:56:48.256Z,24.37
2019-05-11T14:59:18.385Z,23.92
2019-05-11T15:01:48.996Z,24.84
2019-05-11T15:04:18.329Z,24.64
2019-05-11T15:06:49.008Z,26.63
2019-05-11T15:09:18.341Z,27.72
2019-05-11T15:11:48.036Z,26.55
2019-05-11T15:14:21.850Z,25.20
2019-05-11T15:16:48.693Z,25.65
2019-05-11T15:19:18.486Z,25.17
2019-05-11T15:21:47.761Z,24.29
2019-05-11T15:24:18.536Z,23.73
2019-05-11T15:26:48.616Z,23.36
2019-05-11T15:29:18.507Z,23.42
2019-05-11T15:31:48.574Z,23.64
2019-05-11T15:34:18.589Z,24.03
2019-05-11T15:36:49.063Z,24.46
2019-05-11T15:39:18.476Z,25.64
2019-05-11T15:41:47.998Z,26.89
2019-05-11T15:44:18.225Z,27.56
2019-05-11T15:46:48.000Z,27.47
2019-05-11T15:49:18.018Z,27.94
2019-05-11T15:51:48.921Z,28.55
2019-05-11T15:54:18.646Z,26.79
2019-05-11T15:56:47.617Z,26.43
2019-05-11T15:59:16.416Z,25.83
2019-05-11T16:01:45.102Z,25.02
2019-05-11T16:04:13.894Z,24.62
2019-05-11T16:06:42.557Z,23.72
2019-05-11T16:09:11.355Z,22.76
2019-05-11T16:11:40.003Z,22.48
2019-05-11T16:14:09.077Z,22.23
2019-05-11T16:16:38.958Z,21.77
2019-05-11T16:19:14.492Z,21.48
2019-05-11T16:21:38.571Z,21.16
2019-05-11T16:24:08.219Z,21.04
2019-05-11T16:26:37.060Z,20.80
2019-05-11T16:29:08.482Z,20.86
2019-05-11T16:31:37.868Z,20.76
2019-05-11T16:34:08.071Z,20.68
2019-05-11T16:36:38.891Z,20.61
2019-05-11T16:39:10.077Z,20.53
2019-05-11T16:41:38.284Z,20.43
2019-05-11T16:44:07.932Z,20.26
2019-05-11T16:46:38.926Z,20.18
2019-05-11T16:49:10.697Z,20.22
2019-05-11T16:51:38.840Z,20.14
2019-05-11T16:54:07.745Z,19.97
2019-05-11T16:56:38.333Z,19.83
2019-05-11T16:59:08.222Z,19.70
2019-05-11T17:01:37.897Z,19.58
2019-05-11T17:04:06.843Z,19.48
2019-05-11T17:06:38.285Z,19.41
2019-05-11T17:09:08.901Z,19.36
2019-05-11T17:11:38.297Z,19.23
2019-05-11T17:14:08.281Z,19.10
2019-05-11T17:16:38.601Z,19.01
2019-05-11T17:19:08.095Z,18.83
2019-05-11T17:21:38.024Z,18.52
2019-05-11T17:24:07.014Z,18.52
2019-05-11T17:26:35.692Z,18.34
2019-05-11T17:29:04.485Z,18.28
2019-05-11T17:31:33.146Z,18.13
2019-05-11T17:34:01.828Z,17.66
2019-05-11T17:36:30.507Z,17.97
2019-05-11T17:38:59.199Z,17.87
2019-05-11T17:41:28.062Z,17.87
2019-05-11T17:43:58.411Z,17.78
2019-05-11T17:46:27.864Z,17.83
2019-05-11T17:48:56.914Z,17.72
2019-05-11T17:51:25.597Z,17.57
2019-05-11T17:53:54.274Z,17.45
2019-05-11T17:56:22.942Z,17.46
2019-05-11T17:58:51.597Z,17.36
2019-05-11T18:01:20.282Z,17.30
2019-05-11T18:03:48.980Z,17.17
2019-05-11T18:06:18.415Z,16.97
2019-05-11T18:08:47.870Z,16.85
2019-05-11T18:11:18.481Z,16.85
2019-05-11T18:13:48.261Z,16.76
2019-05-11T18:16:18.774Z,16.69
2019-05-11T18:18:48.318Z,16.60
2019-05-11T18:21:18.821Z,16.52
2019-05-11T18:23:48.141Z,16.49
2019-05-11T18:26:18.136Z,16.45
2019-05-11T18:28:48.195Z,16.41
2019-05-11T18:31:18.212Z,16.29
2019-05-11T18:33:48.730Z,16.23
2019-05-11T18:36:18.287Z,16.10
2019-05-11T18:38:48.682Z,15.92
2019-05-11T18:41:17.557Z,15.83
2019-05-11T18:43:48.258Z,15.80
2019-05-11T18:46:16.634Z,15.79
2019-05-11T18:48:45.309Z,15.58
2019-05-11T18:51:13.995Z,15.40
2019-05-11T18:53:42.734Z,15.28
2019-05-11T18:56:11.403Z,15.24
2019-05-11T18:58:40.091Z,15.18
2019-05-11T19:01:08.765Z,15.06
2019-05-11T19:03:38.459Z,15.02
2019-05-11T19:06:08.895Z,14.93
2019-05-11T19:08:38.421Z,14.88
2019-05-11T19:11:09.203Z,14.81
2019-05-11T19:13:38.715Z,14.77
2019-05-11T19:16:08.595Z,14.66
2019-05-11T19:18:38.742Z,14.53
2019-05-11T19:21:09.153Z,14.44
2019-05-11T19:23:38.128Z,14.41
2019-05-11T19:26:08.416Z,14.27
2019-05-11T19:28:38.480Z,14.29
2019-05-11T19:31:08.304Z,14.39
2019-05-11T19:33:38.169Z,14.35
2019-05-11T19:36:07.944Z,14.24
2019-05-11T19:38:38.337Z,14.19
2019-05-11T19:41:08.061Z,14.21
2019-05-11T19:43:38.219Z,14.20
2019-05-11T19:46:08.854Z,14.09
2019-05-11T19:48:38.437Z,13.99
2019-05-11T19:51:10.904Z,14.03
2019-05-11T19:53:38.635Z,14.09
2019-05-11T19:56:07.938Z,14.06
2019-05-11T19:58:38.112Z,14.09
2019-05-11T20:01:08.702Z,14.06
2019-05-11T20:03:37.902Z,14.06
2019-05-11T20:06:08.801Z,14.11
2019-05-11T20:08:37.152Z,14.10
2019-05-11T20:11:08.098Z,14.09
2019-05-11T20:13:38.660Z,14.11
2019-05-11T20:16:08.287Z,14.04
2019-05-11T20:18:37.296Z,14.05
2019-05-11T20:21:16.747Z,13.96
2019-05-11T20:23:37.920Z,14.01
2019-05-11T20:26:08.823Z,13.96
2019-05-11T20:28:37.874Z,13.95
2019-05-11T20:31:08.011Z,13.95
2019-05-11T20:33:38.497Z,13.96
2019-05-11T20:36:08.661Z,13.90
2019-05-11T20:38:38.331Z,13.87
2019-05-11T20:41:08.356Z,13.90
2019-05-11T20:43:37.339Z,13.86
2019-05-11T20:46:08.011Z,13.69
2019-05-11T20:48:38.276Z,13.64
2019-05-11T20:51:08.113Z,13.59
2019-05-11T20:53:38.733Z,13.64
2019-05-11T20:56:08.546Z,13.60
2019-05-11T20:58:55.364Z,13.52
2019-05-11T21:01:25.048Z,13.49
2019-05-11T21:03:53.709Z,13.49
2019-05-11T21:06:22.393Z,13.52
2019-05-11T21:08:51.201Z,13.63
2019-05-11T21:11:19.862Z,13.67
2019-05-11T21:13:48.572Z,13.76
2019-05-11T21:16:17.290Z,13.86
2019-05-11T21:18:45.936Z,13.85
2019-05-11T21:21:14.621Z,13.93
2019-05-11T21:23:43.288Z,13.87
2019-05-11T21:26:11.970Z,13.97
2019-05-11T21:28:40.656Z,13.98
2019-05-11T21:31:09.342Z,14.04
2019-05-11T21:33:37.995Z,14.09
2019-05-11T21:36:08.765Z,14.05
2019-05-11T21:38:38.641Z,13.94
2019-05-11T21:41:08.770Z,13.86
2019-05-11T21:43:37.790Z,13.80
2019-05-11T21:46:08.165Z,13.74
2019-05-11T21:48:38.547Z,13.62
2019-05-11T21:51:08.708Z,13.58
2019-05-11T21:53:38.120Z,13.48
2019-05-11T21:56:08.051Z,13.40
2019-05-11T21:58:37.814Z,13.41
2019-05-11T22:01:07.189Z,13.28
2019-05-11T22:03:38.160Z,13.17
2019-05-11T22:06:08.452Z,13.11
2019-05-11T22:08:36.690Z,13.08
2019-05-11T22:11:05.383Z,13.06
2019-05-11T22:13:34.084Z,13.01
2019-05-11T22:16:02.757Z,13.03
2019-05-11T22:18:31.582Z,12.97
2019-05-11T22:21:00.219Z,12.76
2019-05-11T22:23:28.208Z,12.87
2019-05-11T22:25:58.722Z,12.76
2019-05-11T22:28:28.443Z,12.58
2019-05-11T22:30:57.308Z,12.48
2019-05-11T22:33:28.220Z,12.42
2019-05-11T22:35:58.577Z,12.40
2019-05-11T22:38:29.942Z,12.31
2019-05-11T22:40:58.290Z,12.25
2019-05-11T22:43:28.533Z,12.18
2019-05-11T22:45:58.081Z,12.15
2019-05-11T22:48:27.153Z,12.07
2019-05-11T22:50:55.837Z,12.09
2019-05-11T22:53:24.516Z,12.13
2019-05-11T22:55:53.227Z,12.01
2019-05-11T22:58:21.899Z,12.12
2019-05-11T23:00:50.571Z,12.15
2019-05-11T23:03:22.693Z,12.23
2019-05-11T23:05:49.674Z,12.17
2019-05-11T23:08:18.344Z,12.12
2019-05-11T23:10:47.912Z,12.05
2019-05-11T23:13:18.675Z,12.01
2019-05-11T23:15:47.810Z,11.91
2019-05-11T23:18:18.025Z,11.90
2019-05-11T23:20:47.853Z,11.94
2019-05-11T23:23:17.814Z,11.98
2019-05-11T23:25:46.680Z,11.98
2019-05-11T23:28:15.349Z,11.92
2019-05-11T23:30:44.020Z,11.93
2019-05-11T23:33:12.704Z,11.94
2019-05-11T23:35:41.385Z,11.98
2019-05-11T23:38:10.083Z,11.97
2019-05-11T23:40:38.751Z,11.86
2019-05-11T23:43:08.781Z,11.75
2019-05-11T23:45:38.282Z,11.68
2019-05-11T23:48:07.263Z,11.64
2019-05-11T23:50:38.339Z,11.58
2019-05-11T23:53:09.858Z,11.54
2019-05-11T23:55:38.058Z,11.50
2019-05-11T23:58:08.191Z,11.41
